sensor_id;sensor_type;location;lat;lon;timestamp;temperature;humidity
39525;DHT22;25203;50.754;6.978;2024-01-30T00:00:46;5.10;99.90
39525;DHT22;25203;50.754;6.978;2024-01-30T00:02:46;5.00;99.90
39525;DHT22;25203;50.754;6.978;2024-01-30T00:04:47;4.90;99.90
39525;DHT22;25203;50.754;6.978;2024-01-30T00:06:47;4.90;99.90
39525;DHT22;25203;50.754;6.978;2024-01-30T00:08:48;4.80;99.90
39525;DHT22;25203;50.754;6.978;2024-01-30T00:10:51;4.70;99.90
39525;DHT22;25203;50.754;6.978;2024-01-30T00:12:52;4.70;99.90
39525;DHT22;25203;50.754;6.978;2024-01-30T00:14:53;4.80;99.90
39525;DHT22;25203;50.754;6.978;2024-01-30T00:16:53;4.80;99.90
39525;DHT22;25203;50.754;6.978;2024-01-30T00:18:54;4.70;99.90
39525;DHT22;25203;50.754;6.978;2024-01-30T00:20:55;4.60;99.90
39525;DHT22;25203;50.754;6.978;2024-01-30T00:22:55;4.50;99.90
39525;DHT22;25203;50.754;6.978;2024-01-30T00:24:56;4.40;99.90
39525;DHT22;25203;50.754;6.978;2024-01-30T00:26:57;4.50;99.90
39525;DHT22;25203;50.754;6.978;2024-01-30T00:28:57;4.80;99.90
39525;DHT22;25203;50.754;6.978;2024-01-30T00:30:58;5.00;99.90
39525;DHT22;25203;50.754;6.978;2024-01-30T00:32:58;5.30;99.90
39525;DHT22;25203;50.754;6.978;2024-01-30T00:34:59;5.50;99.90
39525;DHT22;25203;50.754;6.978;2024-01-30T00:36:59;5.80;99.90
39525;DHT22;25203;50.754;6.978;2024-01-30T00:39:00;6.00;99.90
39525;DHT22;25203;50.754;6.978;2024-01-30T00:41:01;6.10;99.90
39525;DHT22;25203;50.754;6.978;2024-01-30T00:43:05;6.30;99.90
39525;DHT22;25203;50.754;6.978;2024-01-30T00:45:06;6.40;99.90
39525;DHT22;25203;50.754;6.978;2024-01-30T00:47:06;6.50;99.90
39525;DHT22;25203;50.754;6.978;2024-01-30T00:49:07;6.50;99.90
39525;DHT22;25203;50.754;6.978;2024-01-30T00:51:08;6.50;99.90
39525;DHT22;25203;50.754;6.978;2024-01-30T00:53:08;6.50;99.90
39525;DHT22;25203;50.754;6.978;2024-01-30T00:55:09;6.40;99.90
39525;DHT22;25203;50.754;6.978;2024-01-30T00:57:10;6.40;99.90
39525;DHT22;25203;50.754;6.978;2024-01-30T00:59:11;6.40;99.90
39525;DHT22;25203;50.754;6.978;2024-01-30T01:01:12;6.30;99.90
39525;DHT22;25203;50.754;6.978;2024-01-30T01:03:13;6.30;99.90
39525;DHT22;25203;50.754;6.978;2024-01-30T01:05:14;6.20;99.90
39525;DHT22;25203;50.754;6.978;2024-01-30T01:07:14;6.20;99.90
39525;DHT22;25203;50.754;6.978;2024-01-30T01:09:15;6.10;99.90
39525;DHT22;25203;50.754;6.978;2024-01-30T01:11:17;6.10;99.90
39525;DHT22;25203;50.754;6.978;2024-01-30T01:13:17;6.20;99.90
39525;DHT22;25203;50.754;6.978;2024-01-30T01:15:18;6.20;99.90
39525;DHT22;25203;50.754;6.978;2024-01-30T01:17:18;6.30;99.90
39525;DHT22;25203;50.754;6.978;2024-01-30T01:19:19;6.40;99.90
39525;DHT22;25203;50.754;6.978;2024-01-30T01:21:20;6.50;99.90
39525;DHT22;25203;50.754;6.978;2024-01-30T01:23:20;6.60;99.90
39525;DHT22;25203;50.754;6.978;2024-01-30T01:25:21;6.70;99.90
39525;DHT22;25203;50.754;6.978;2024-01-30T01:27:22;6.70;99.90
39525;DHT22;25203;50.754;6.978;2024-01-30T01:29:22;6.80;99.90
39525;DHT22;25203;50.754;6.978;2024-01-30T01:31:28;6.80;99.90
39525;DHT22;25203;50.754;6.978;2024-01-30T01:33:30;6.80;99.90
39525;DHT22;25203;50.754;6.978;2024-01-30T01:35:30;6.90;99.90
39525;DHT22;25203;50.754;6.978;2024-01-30T01:37:31;6.90;99.90
39525;DHT22;25203;50.754;6.978;2024-01-30T01:39:32;7.00;99.90
39525;DHT22;25203;50.754;6.978;2024-01-30T01:41:33;7.00;99.90
39525;DHT22;25203;50.754;6.978;2024-01-30T01:43:33;7.00;99.90
39525;DHT22;25203;50.754;6.978;2024-01-30T01:45:34;7.00;99.90
39525;DHT22;25203;50.754;6.978;2024-01-30T01:47:34;7.10;99.90
39525;DHT22;25203;50.754;6.978;2024-01-30T01:49:35;7.10;99.90
39525;DHT22;25203;50.754;6.978;2024-01-30T01:51:36;7.10;99.90
39525;DHT22;25203;50.754;6.978;2024-01-30T01:53:39;7.10;99.90
39525;DHT22;25203;50.754;6.978;2024-01-30T01:55:39;7.10;99.90
39525;DHT22;25203;50.754;6.978;2024-01-30T01:57:41;7.10;99.90
39525;DHT22;25203;50.754;6.978;2024-01-30T01:59:42;7.10;99.90
39525;DHT22;25203;50.754;6.978;2024-01-30T02:01:42;7.00;99.90
39525;DHT22;25203;50.754;6.978;2024-01-30T02:03:43;7.00;99.90
39525;DHT22;25203;50.754;6.978;2024-01-30T02:05:44;6.90;99.90
39525;DHT22;25203;50.754;6.978;2024-01-30T02:07:45;6.80;99.90
39525;DHT22;25203;50.754;6.978;2024-01-30T02:09:46;6.70;99.90
39525;DHT22;25203;50.754;6.978;2024-01-30T02:11:47;6.60;99.90
39525;DHT22;25203;50.754;6.978;2024-01-30T02:13:48;6.60;99.90
39525;DHT22;25203;50.754;6.978;2024-01-30T02:15:50;6.50;99.90
39525;DHT22;25203;50.754;6.978;2024-01-30T02:17:51;6.30;99.90
39525;DHT22;25203;50.754;6.978;2024-01-30T02:19:52;6.30;99.90
39525;DHT22;25203;50.754;6.978;2024-01-30T02:21:53;6.20;99.90
39525;DHT22;25203;50.754;6.978;2024-01-30T02:23:54;6.20;99.90
39525;DHT22;25203;50.754;6.978;2024-01-30T02:25:55;6.20;99.90
39525;DHT22;25203;50.754;6.978;2024-01-30T02:27:56;6.30;99.90
39525;DHT22;25203;50.754;6.978;2024-01-30T02:29:56;6.30;99.90
39525;DHT22;25203;50.754;6.978;2024-01-30T02:31:57;6.40;99.90
39525;DHT22;25203;50.754;6.978;2024-01-30T02:33:57;6.40;99.90
39525;DHT22;25203;50.754;6.978;2024-01-30T02:35:58;6.40;99.90
39525;DHT22;25203;50.754;6.978;2024-01-30T02:37:59;6.30;99.90
39525;DHT22;25203;50.754;6.978;2024-01-30T02:39:59;6.40;99.90
39525;DHT22;25203;50.754;6.978;2024-01-30T02:42:00;6.40;99.90
39525;DHT22;25203;50.754;6.978;2024-01-30T02:44:01;6.50;99.90
39525;DHT22;25203;50.754;6.978;2024-01-30T02:46:02;6.70;99.90
39525;DHT22;25203;50.754;6.978;2024-01-30T02:48:02;6.70;99.90
39525;DHT22;25203;50.754;6.978;2024-01-30T02:50:03;6.80;99.90
39525;DHT22;25203;50.754;6.978;2024-01-30T02:52:04;6.70;99.90
39525;DHT22;25203;50.754;6.978;2024-01-30T02:54:05;6.60;99.90
39525;DHT22;25203;50.754;6.978;2024-01-30T02:56:05;6.60;99.90
39525;DHT22;25203;50.754;6.978;2024-01-30T02:58:10;6.70;99.90
39525;DHT22;25203;50.754;6.978;2024-01-30T03:00:11;6.80;99.90
39525;DHT22;25203;50.754;6.978;2024-01-30T03:02:11;7.00;99.90
39525;DHT22;25203;50.754;6.978;2024-01-30T03:04:12;7.10;99.90
39525;DHT22;25203;50.754;6.978;2024-01-30T03:06:12;7.30;99.90
39525;DHT22;25203;50.754;6.978;2024-01-30T03:08:15;7.40;99.90
39525;DHT22;25203;50.754;6.978;2024-01-30T03:10:16;7.60;99.90
39525;DHT22;25203;50.754;6.978;2024-01-30T03:12:16;7.70;99.90
39525;DHT22;25203;50.754;6.978;2024-01-30T03:14:17;7.80;99.90
39525;DHT22;25203;50.754;6.978;2024-01-30T03:16:17;7.90;99.90
39525;DHT22;25203;50.754;6.978;2024-01-30T03:18:18;7.90;99.90
39525;DHT22;25203;50.754;6.978;2024-01-30T03:20:19;7.90;99.90
39525;DHT22;25203;50.754;6.978;2024-01-30T03:22:19;7.90;99.90
39525;DHT22;25203;50.754;6.978;2024-01-30T03:24:20;7.90;99.90
39525;DHT22;25203;50.754;6.978;2024-01-30T03:26:20;7.80;99.90
39525;DHT22;25203;50.754;6.978;2024-01-30T03:28:21;7.80;99.90
39525;DHT22;25203;50.754;6.978;2024-01-30T03:30:22;7.70;99.90
39525;DHT22;25203;50.754;6.978;2024-01-30T03:32:22;7.60;99.90
39525;DHT22;25203;50.754;6.978;2024-01-30T03:34:23;7.50;99.90
39525;DHT22;25203;50.754;6.978;2024-01-30T03:36:24;7.50;99.90
39525;DHT22;25203;50.754;6.978;2024-01-30T03:38:24;7.50;99.90
39525;DHT22;25203;50.754;6.978;2024-01-30T03:40:25;7.50;99.90
39525;DHT22;25203;50.754;6.978;2024-01-30T03:42:25;7.40;99.90
39525;DHT22;25203;50.754;6.978;2024-01-30T03:44:26;7.40;99.90
39525;DHT22;25203;50.754;6.978;2024-01-30T03:46:26;7.30;99.90
39525;DHT22;25203;50.754;6.978;2024-01-30T03:48:27;7.30;99.90
39525;DHT22;25203;50.754;6.978;2024-01-30T03:50:28;7.30;99.90
39525;DHT22;25203;50.754;6.978;2024-01-30T03:52:28;7.30;99.90
39525;DHT22;25203;50.754;6.978;2024-01-30T03:54:29;7.30;99.90
39525;DHT22;25203;50.754;6.978;2024-01-30T03:56:29;7.30;99.90
39525;DHT22;25203;50.754;6.978;2024-01-30T03:58:30;7.30;99.90
39525;DHT22;25203;50.754;6.978;2024-01-30T04:00:31;7.50;99.90
39525;DHT22;25203;50.754;6.978;2024-01-30T04:02:31;7.50;99.90
39525;DHT22;25203;50.754;6.978;2024-01-30T04:04:32;7.50;99.90
39525;DHT22;25203;50.754;6.978;2024-01-30T04:06:32;7.50;99.90
39525;DHT22;25203;50.754;6.978;2024-01-30T04:08:33;7.50;99.90
39525;DHT22;25203;50.754;6.978;2024-01-30T04:10:34;7.50;99.90
39525;DHT22;25203;50.754;6.978;2024-01-30T04:12:34;7.50;99.90
39525;DHT22;25203;50.754;6.978;2024-01-30T04:14:37;7.50;99.90
39525;DHT22;25203;50.754;6.978;2024-01-30T04:16:38;7.50;99.90
39525;DHT22;25203;50.754;6.978;2024-01-30T04:18:39;7.50;99.90
39525;DHT22;25203;50.754;6.978;2024-01-30T04:20:39;7.50;99.90
39525;DHT22;25203;50.754;6.978;2024-01-30T04:22:40;7.60;99.90
39525;DHT22;25203;50.754;6.978;2024-01-30T04:24:41;7.60;99.90
39525;DHT22;25203;50.754;6.978;2024-01-30T04:26:41;7.60;99.90
39525;DHT22;25203;50.754;6.978;2024-01-30T04:28:44;7.60;99.90
39525;DHT22;25203;50.754;6.978;2024-01-30T04:30:44;7.50;99.90
39525;DHT22;25203;50.754;6.978;2024-01-30T04:32:45;7.50;99.90
39525;DHT22;25203;50.754;6.978;2024-01-30T04:34:45;7.40;99.90
39525;DHT22;25203;50.754;6.978;2024-01-30T04:36:46;7.30;99.90
39525;DHT22;25203;50.754;6.978;2024-01-30T04:38:47;7.20;99.90
39525;DHT22;25203;50.754;6.978;2024-01-30T04:40:47;7.10;99.90
39525;DHT22;25203;50.754;6.978;2024-01-30T04:42:48;7.00;99.90
39525;DHT22;25203;50.754;6.978;2024-01-30T04:44:49;7.10;99.90
39525;DHT22;25203;50.754;6.978;2024-01-30T04:46:49;7.00;99.90
39525;DHT22;25203;50.754;6.978;2024-01-30T04:48:50;7.00;99.90
39525;DHT22;25203;50.754;6.978;2024-01-30T04:50:50;6.90;99.90
39525;DHT22;25203;50.754;6.978;2024-01-30T04:52:51;6.90;99.90
39525;DHT22;25203;50.754;6.978;2024-01-30T04:54:52;6.80;99.90
39525;DHT22;25203;50.754;6.978;2024-01-30T04:56:52;6.70;99.90
39525;DHT22;25203;50.754;6.978;2024-01-30T04:58:53;6.70;99.90
39525;DHT22;25203;50.754;6.978;2024-01-30T05:00:54;6.60;99.90
39525;DHT22;25203;50.754;6.978;2024-01-30T05:02:57;6.60;99.90
39525;DHT22;25203;50.754;6.978;2024-01-30T05:04:58;6.60;99.90
39525;DHT22;25203;50.754;6.978;2024-01-30T05:06:59;6.60;99.90
39525;DHT22;25203;50.754;6.978;2024-01-30T05:08:59;6.60;99.90
39525;DHT22;25203;50.754;6.978;2024-01-30T05:11:00;6.50;99.90
39525;DHT22;25203;50.754;6.978;2024-01-30T05:13:02;6.50;99.90
39525;DHT22;25203;50.754;6.978;2024-01-30T05:15:02;6.50;99.90
39525;DHT22;25203;50.754;6.978;2024-01-30T05:17:03;6.30;99.90
39525;DHT22;25203;50.754;6.978;2024-01-30T05:19:04;6.40;99.90
39525;DHT22;25203;50.754;6.978;2024-01-30T05:21:05;6.50;99.90
39525;DHT22;25203;50.754;6.978;2024-01-30T05:23:06;6.50;99.90
39525;DHT22;25203;50.754;6.978;2024-01-30T05:25:07;6.50;99.90
39525;DHT22;25203;50.754;6.978;2024-01-30T05:27:07;6.50;99.90
39525;DHT22;25203;50.754;6.978;2024-01-30T05:29:08;6.60;99.90
39525;DHT22;25203;50.754;6.978;2024-01-30T05:31:09;6.60;99.90
39525;DHT22;25203;50.754;6.978;2024-01-30T05:33:09;6.60;99.90
39525;DHT22;25203;50.754;6.978;2024-01-30T05:35:12;6.60;99.90
39525;DHT22;25203;50.754;6.978;2024-01-30T05:37:13;6.70;99.90
39525;DHT22;25203;50.754;6.978;2024-01-30T05:39:17;6.70;99.90
39525;DHT22;25203;50.754;6.978;2024-01-30T05:41:17;6.70;99.90
39525;DHT22;25203;50.754;6.978;2024-01-30T05:43:18;6.60;99.90
39525;DHT22;25203;50.754;6.978;2024-01-30T05:45:19;6.60;99.90
39525;DHT22;25203;50.754;6.978;2024-01-30T05:47:19;6.60;99.90
39525;DHT22;25203;50.754;6.978;2024-01-30T05:49:20;6.60;99.90
39525;DHT22;25203;50.754;6.978;2024-01-30T05:51:20;6.70;99.90
39525;DHT22;25203;50.754;6.978;2024-01-30T05:53:21;6.80;99.90
39525;DHT22;25203;50.754;6.978;2024-01-30T05:55:22;6.90;99.90
39525;DHT22;25203;50.754;6.978;2024-01-30T05:57:22;6.90;99.90
39525;DHT22;25203;50.754;6.978;2024-01-30T05:59:23;6.90;99.90
39525;DHT22;25203;50.754;6.978;2024-01-30T06:01:23;6.90;99.90
39525;DHT22;25203;50.754;6.978;2024-01-30T06:03:24;6.90;99.90
39525;DHT22;25203;50.754;6.978;2024-01-30T06:05:25;6.80;99.90
39525;DHT22;25203;50.754;6.978;2024-01-30T06:07:25;6.70;99.90
39525;DHT22;25203;50.754;6.978;2024-01-30T06:09:26;6.70;99.90
39525;DHT22;25203;50.754;6.978;2024-01-30T06:11:26;6.60;99.90
39525;DHT22;25203;50.754;6.978;2024-01-30T06:13:27;6.50;99.90
39525;DHT22;25203;50.754;6.978;2024-01-30T06:15:27;6.40;99.90
39525;DHT22;25203;50.754;6.978;2024-01-30T06:17:30;6.30;99.90
39525;DHT22;25203;50.754;6.978;2024-01-30T06:19:30;6.30;99.90
39525;DHT22;25203;50.754;6.978;2024-01-30T06:21:31;6.30;99.90
39525;DHT22;25203;50.754;6.978;2024-01-30T06:23:32;6.30;99.90
39525;DHT22;25203;50.754;6.978;2024-01-30T06:25:33;6.30;99.90
39525;DHT22;25203;50.754;6.978;2024-01-30T06:27:33;6.40;99.90
39525;DHT22;25203;50.754;6.978;2024-01-30T06:29:34;6.40;99.90
39525;DHT22;25203;50.754;6.978;2024-01-30T06:31:43;6.60;99.90
39525;DHT22;25203;50.754;6.978;2024-01-30T06:33:43;6.70;99.90
39525;DHT22;25203;50.754;6.978;2024-01-30T06:35:44;6.80;99.90
39525;DHT22;25203;50.754;6.978;2024-01-30T06:37:46;6.90;99.90
39525;DHT22;25203;50.754;6.978;2024-01-30T06:39:46;6.90;99.90
39525;DHT22;25203;50.754;6.978;2024-01-30T06:41:47;7.00;99.90
39525;DHT22;25203;50.754;6.978;2024-01-30T06:43:47;7.10;99.90
39525;DHT22;25203;50.754;6.978;2024-01-30T06:45:48;7.10;99.90
39525;DHT22;25203;50.754;6.978;2024-01-30T06:47:49;7.10;99.90
39525;DHT22;25203;50.754;6.978;2024-01-30T06:49:49;7.00;99.90
39525;DHT22;25203;50.754;6.978;2024-01-30T06:51:50;7.10;99.90
39525;DHT22;25203;50.754;6.978;2024-01-30T06:53:50;7.10;99.90
39525;DHT22;25203;50.754;6.978;2024-01-30T06:55:52;7.20;99.90
39525;DHT22;25203;50.754;6.978;2024-01-30T06:57:52;7.30;99.90
39525;DHT22;25203;50.754;6.978;2024-01-30T06:59:53;7.40;99.90
39525;DHT22;25203;50.754;6.978;2024-01-30T07:01:53;7.40;99.90
39525;DHT22;25203;50.754;6.978;2024-01-30T07:03:54;7.40;99.90
39525;DHT22;25203;50.754;6.978;2024-01-30T07:05:55;7.50;99.90
39525;DHT22;25203;50.754;6.978;2024-01-30T07:07:55;7.50;99.90
39525;DHT22;25203;50.754;6.978;2024-01-30T07:09:56;7.50;99.90
39525;DHT22;25203;50.754;6.978;2024-01-30T07:11:57;7.50;99.90
39525;DHT22;25203;50.754;6.978;2024-01-30T07:13:58;7.50;99.90
39525;DHT22;25203;50.754;6.978;2024-01-30T07:15:59;7.50;99.90
39525;DHT22;25203;50.754;6.978;2024-01-30T07:18:00;7.60;99.90
39525;DHT22;25203;50.754;6.978;2024-01-30T07:20:00;7.60;99.90
39525;DHT22;25203;50.754;6.978;2024-01-30T07:22:03;7.60;99.90
39525;DHT22;25203;50.754;6.978;2024-01-30T07:24:04;7.60;99.90
39525;DHT22;25203;50.754;6.978;2024-01-30T07:26:05;7.60;99.90
39525;DHT22;25203;50.754;6.978;2024-01-30T07:28:07;7.60;99.90
39525;DHT22;25203;50.754;6.978;2024-01-30T07:30:10;7.70;99.90
39525;DHT22;25203;50.754;6.978;2024-01-30T07:32:11;7.60;99.90
39525;DHT22;25203;50.754;6.978;2024-01-30T07:34:11;7.60;99.90
39525;DHT22;25203;50.754;6.978;2024-01-30T07:36:12;7.60;99.90
39525;DHT22;25203;50.754;6.978;2024-01-30T07:38:13;7.60;99.90
39525;DHT22;25203;50.754;6.978;2024-01-30T07:40:13;7.50;99.90
39525;DHT22;25203;50.754;6.978;2024-01-30T07:42:14;7.50;99.90
39525;DHT22;25203;50.754;6.978;2024-01-30T07:44:15;7.50;99.90
39525;DHT22;25203;50.754;6.978;2024-01-30T07:46:16;7.50;99.90
39525;DHT22;25203;50.754;6.978;2024-01-30T07:48:17;7.50;99.90
39525;DHT22;25203;50.754;6.978;2024-01-30T07:50:17;7.40;99.90
39525;DHT22;25203;50.754;6.978;2024-01-30T07:52:19;7.40;99.90
39525;DHT22;25203;50.754;6.978;2024-01-30T07:54:19;7.40;99.90
39525;DHT22;25203;50.754;6.978;2024-01-30T07:56:20;7.50;99.90
39525;DHT22;25203;50.754;6.978;2024-01-30T07:58:21;7.50;99.90
39525;DHT22;25203;50.754;6.978;2024-01-30T08:00:22;7.50;99.90
39525;DHT22;25203;50.754;6.978;2024-01-30T08:02:22;7.40;99.90
39525;DHT22;25203;50.754;6.978;2024-01-30T08:04:23;7.30;99.90
39525;DHT22;25203;50.754;6.978;2024-01-30T08:06:23;7.30;99.90
39525;DHT22;25203;50.754;6.978;2024-01-30T08:08:24;7.20;99.90
39525;DHT22;25203;50.754;6.978;2024-01-30T08:10:26;7.30;99.90
39525;DHT22;25203;50.754;6.978;2024-01-30T08:12:26;7.20;99.90
39525;DHT22;25203;50.754;6.978;2024-01-30T08:14:27;7.00;99.90
39525;DHT22;25203;50.754;6.978;2024-01-30T08:16:28;7.00;99.90
39525;DHT22;25203;50.754;6.978;2024-01-30T08:18:29;7.10;99.90
39525;DHT22;25203;50.754;6.978;2024-01-30T08:20:29;7.30;99.90
39525;DHT22;25203;50.754;6.978;2024-01-30T08:22:30;7.40;99.90
39525;DHT22;25203;50.754;6.978;2024-01-30T08:24:31;7.50;99.90
39525;DHT22;25203;50.754;6.978;2024-01-30T08:26:32;7.60;99.90
39525;DHT22;25203;50.754;6.978;2024-01-30T08:28:33;7.80;99.90
39525;DHT22;25203;50.754;6.978;2024-01-30T08:30:33;7.80;99.90
39525;DHT22;25203;50.754;6.978;2024-01-30T08:32:34;7.90;99.90
39525;DHT22;25203;50.754;6.978;2024-01-30T08:34:35;8.00;99.90
39525;DHT22;25203;50.754;6.978;2024-01-30T08:36:36;8.10;99.90
39525;DHT22;25203;50.754;6.978;2024-01-30T08:38:37;8.10;99.90
39525;DHT22;25203;50.754;6.978;2024-01-30T08:40:37;8.20;99.90
39525;DHT22;25203;50.754;6.978;2024-01-30T08:42:38;8.30;99.90
39525;DHT22;25203;50.754;6.978;2024-01-30T08:44:38;8.40;99.90
39525;DHT22;25203;50.754;6.978;2024-01-30T08:46:39;8.60;99.90
39525;DHT22;25203;50.754;6.978;2024-01-30T08:48:40;8.70;99.90
39525;DHT22;25203;50.754;6.978;2024-01-30T08:50:41;8.90;99.90
39525;DHT22;25203;50.754;6.978;2024-01-30T08:52:42;9.10;99.90
39525;DHT22;25203;50.754;6.978;2024-01-30T08:54:42;9.30;99.90
39525;DHT22;25203;50.754;6.978;2024-01-30T08:56:43;9.50;99.90
39525;DHT22;25203;50.754;6.978;2024-01-30T08:58:44;9.70;99.90
39525;DHT22;25203;50.754;6.978;2024-01-30T09:00:45;10.00;99.90
39525;DHT22;25203;50.754;6.978;2024-01-30T09:02:45;10.30;99.90
39525;DHT22;25203;50.754;6.978;2024-01-30T09:04:46;10.60;99.90
39525;DHT22;25203;50.754;6.978;2024-01-30T09:06:48;11.00;99.90
39525;DHT22;25203;50.754;6.978;2024-01-30T09:08:49;11.30;99.90
39525;DHT22;25203;50.754;6.978;2024-01-30T09:10:50;11.40;99.90
39525;DHT22;25203;50.754;6.978;2024-01-30T09:12:50;11.40;99.90
39525;DHT22;25203;50.754;6.978;2024-01-30T09:14:51;11.30;99.90
39525;DHT22;25203;50.754;6.978;2024-01-30T09:16:52;11.10;99.90
39525;DHT22;25203;50.754;6.978;2024-01-30T09:18:52;11.10;99.90
39525;DHT22;25203;50.754;6.978;2024-01-30T09:20:53;11.30;99.90
39525;DHT22;25203;50.754;6.978;2024-01-30T09:22:53;11.50;99.90
39525;DHT22;25203;50.754;6.978;2024-01-30T09:24:54;11.90;99.90
39525;DHT22;25203;50.754;6.978;2024-01-30T09:26:54;12.50;99.90
39525;DHT22;25203;50.754;6.978;2024-01-30T09:28:55;13.30;99.90
39525;DHT22;25203;50.754;6.978;2024-01-30T09:30:56;14.40;99.90
39525;DHT22;25203;50.754;6.978;2024-01-30T09:32:56;15.70;99.90
39525;DHT22;25203;50.754;6.978;2024-01-30T09:34:57;16.40;98.50
39525;DHT22;25203;50.754;6.978;2024-01-30T09:36:59;16.70;97.90
39525;DHT22;25203;50.754;6.978;2024-01-30T09:39:00;17.30;97.20
39525;DHT22;25203;50.754;6.978;2024-01-30T09:41:04;17.80;95.80
39525;DHT22;25203;50.754;6.978;2024-01-30T09:43:07;17.70;95.00
39525;DHT22;25203;50.754;6.978;2024-01-30T09:45:09;17.50;95.30
39525;DHT22;25203;50.754;6.978;2024-01-30T09:47:15;17.20;95.30
39525;DHT22;25203;50.754;6.978;2024-01-30T09:49:16;17.00;95.40
39525;DHT22;25203;50.754;6.978;2024-01-30T09:51:18;16.60;96.20
39525;DHT22;25203;50.754;6.978;2024-01-30T09:53:20;16.10;96.70
39525;DHT22;25203;50.754;6.978;2024-01-30T09:55:21;15.90;97.20
39525;DHT22;25203;50.754;6.978;2024-01-30T09:57:22;16.00;97.30
39525;DHT22;25203;50.754;6.978;2024-01-30T09:59:23;15.90;97.50
39525;DHT22;25203;50.754;6.978;2024-01-30T10:01:25;15.90;97.50
39525;DHT22;25203;50.754;6.978;2024-01-30T10:03:26;15.70;97.80
39525;DHT22;25203;50.754;6.978;2024-01-30T10:05:27;15.30;98.20
39525;DHT22;25203;50.754;6.978;2024-01-30T10:07:29;14.90;98.90
39525;DHT22;25203;50.754;6.978;2024-01-30T10:09:32;14.50;99.70
39525;DHT22;25203;50.754;6.978;2024-01-30T10:11:34;14.10;99.90
39525;DHT22;25203;50.754;6.978;2024-01-30T10:13:34;13.80;99.90
39525;DHT22;25203;50.754;6.978;2024-01-30T10:15:37;13.60;99.90
39525;DHT22;25203;50.754;6.978;2024-01-30T10:17:39;13.50;99.90
39525;DHT22;25203;50.754;6.978;2024-01-30T10:19:40;13.40;99.90
39525;DHT22;25203;50.754;6.978;2024-01-30T10:21:41;13.20;99.90
39525;DHT22;25203;50.754;6.978;2024-01-30T10:23:43;13.10;99.90
39525;DHT22;25203;50.754;6.978;2024-01-30T10:25:45;13.00;99.90
39525;DHT22;25203;50.754;6.978;2024-01-30T10:27:45;12.80;99.90
39525;DHT22;25203;50.754;6.978;2024-01-30T10:29:48;12.80;99.90
39525;DHT22;25203;50.754;6.978;2024-01-30T10:32:02;12.80;99.90
39525;DHT22;25203;50.754;6.978;2024-01-30T10:34:03;12.80;99.90
39525;DHT22;25203;50.754;6.978;2024-01-30T10:36:05;12.80;99.90
39525;DHT22;25203;50.754;6.978;2024-01-30T10:38:08;12.70;99.90
39525;DHT22;25203;50.754;6.978;2024-01-30T10:40:13;12.80;99.90
39525;DHT22;25203;50.754;6.978;2024-01-30T10:42:17;12.70;99.90
39525;DHT22;25203;50.754;6.978;2024-01-30T10:44:19;12.70;99.90
39525;DHT22;25203;50.754;6.978;2024-01-30T10:46:29;12.70;99.90
39525;DHT22;25203;50.754;6.978;2024-01-30T10:48:32;12.70;99.90
39525;DHT22;25203;50.754;6.978;2024-01-30T10:50:37;12.70;99.90
39525;DHT22;25203;50.754;6.978;2024-01-30T10:52:41;12.60;99.90
39525;DHT22;25203;50.754;6.978;2024-01-30T10:54:45;12.60;99.90
39525;DHT22;25203;50.754;6.978;2024-01-30T10:56:47;12.60;99.90
39525;DHT22;25203;50.754;6.978;2024-01-30T10:58:50;12.60;99.90
39525;DHT22;25203;50.754;6.978;2024-01-30T11:00:52;12.60;99.90
39525;DHT22;25203;50.754;6.978;2024-01-30T11:02:53;12.70;99.90
39525;DHT22;25203;50.754;6.978;2024-01-30T11:04:57;12.70;99.90
39525;DHT22;25203;50.754;6.978;2024-01-30T11:06:58;12.70;99.90
39525;DHT22;25203;50.754;6.978;2024-01-30T11:09:04;12.70;99.90
39525;DHT22;25203;50.754;6.978;2024-01-30T11:11:09;12.70;99.90
39525;DHT22;25203;50.754;6.978;2024-01-30T11:13:10;12.80;99.90
39525;DHT22;25203;50.754;6.978;2024-01-30T11:15:14;12.80;99.90
39525;DHT22;25203;50.754;6.978;2024-01-30T11:17:15;12.90;99.90
39525;DHT22;25203;50.754;6.978;2024-01-30T11:19:25;12.90;99.90
39525;DHT22;25203;50.754;6.978;2024-01-30T11:21:26;13.00;99.90
39525;DHT22;25203;50.754;6.978;2024-01-30T11:23:30;13.00;99.90
39525;DHT22;25203;50.754;6.978;2024-01-30T11:25:32;13.10;99.90
39525;DHT22;25203;50.754;6.978;2024-01-30T11:27:32;13.20;99.90
39525;DHT22;25203;50.754;6.978;2024-01-30T11:29:35;13.20;99.90
39525;DHT22;25203;50.754;6.978;2024-01-30T11:31:36;13.30;99.90
39525;DHT22;25203;50.754;6.978;2024-01-30T11:33:37;13.30;99.90
39525;DHT22;25203;50.754;6.978;2024-01-30T11:35:42;13.30;99.90
39525;DHT22;25203;50.754;6.978;2024-01-30T11:37:43;13.30;99.90
39525;DHT22;25203;50.754;6.978;2024-01-30T11:39:46;13.40;99.90
39525;DHT22;25203;50.754;6.978;2024-01-30T11:41:49;13.40;99.90
39525;DHT22;25203;50.754;6.978;2024-01-30T11:43:52;13.50;99.90
39525;DHT22;25203;50.754;6.978;2024-01-30T11:45:53;13.40;99.90
39525;DHT22;25203;50.754;6.978;2024-01-30T11:47:54;13.40;99.90
39525;DHT22;25203;50.754;6.978;2024-01-30T11:49:55;13.50;99.90
39525;DHT22;25203;50.754;6.978;2024-01-30T11:51:56;13.40;99.90
39525;DHT22;25203;50.754;6.978;2024-01-30T11:53:57;13.60;99.90
39525;DHT22;25203;50.754;6.978;2024-01-30T11:55:58;13.60;99.90
39525;DHT22;25203;50.754;6.978;2024-01-30T11:57:58;13.70;99.90
39525;DHT22;25203;50.754;6.978;2024-01-30T11:59:59;13.60;99.90
39525;DHT22;25203;50.754;6.978;2024-01-30T12:02:00;13.50;99.90
39525;DHT22;25203;50.754;6.978;2024-01-30T12:04:00;13.50;99.90
39525;DHT22;25203;50.754;6.978;2024-01-30T12:06:03;13.40;99.90
39525;DHT22;25203;50.754;6.978;2024-01-30T12:08:04;13.30;99.90
39525;DHT22;25203;50.754;6.978;2024-01-30T12:10:04;13.30;99.90
39525;DHT22;25203;50.754;6.978;2024-01-30T12:12:07;13.40;99.90
39525;DHT22;25203;50.754;6.978;2024-01-30T12:14:12;13.40;99.90
39525;DHT22;25203;50.754;6.978;2024-01-30T12:16:13;13.50;99.90
39525;DHT22;25203;50.754;6.978;2024-01-30T12:18:14;13.50;99.90
39525;DHT22;25203;50.754;6.978;2024-01-30T12:20:19;13.60;99.90
39525;DHT22;25203;50.754;6.978;2024-01-30T12:22:21;13.60;99.90
39525;DHT22;25203;50.754;6.978;2024-01-30T12:24:22;13.60;99.90
39525;DHT22;25203;50.754;6.978;2024-01-30T12:26:24;13.50;99.90
39525;DHT22;25203;50.754;6.978;2024-01-30T12:28:27;13.50;99.90
39525;DHT22;25203;50.754;6.978;2024-01-30T12:30:29;13.50;99.90
39525;DHT22;25203;50.754;6.978;2024-01-30T12:32:30;13.50;99.90
39525;DHT22;25203;50.754;6.978;2024-01-30T12:34:30;13.60;99.90
39525;DHT22;25203;50.754;6.978;2024-01-30T12:36:31;13.60;99.90
39525;DHT22;25203;50.754;6.978;2024-01-30T12:38:32;13.60;99.90
39525;DHT22;25203;50.754;6.978;2024-01-30T12:40:33;13.50;99.90
39525;DHT22;25203;50.754;6.978;2024-01-30T12:42:34;13.50;99.90
39525;DHT22;25203;50.754;6.978;2024-01-30T12:44:35;13.50;99.90
39525;DHT22;25203;50.754;6.978;2024-01-30T12:46:35;13.50;99.90
39525;DHT22;25203;50.754;6.978;2024-01-30T12:48:36;13.50;99.90
39525;DHT22;25203;50.754;6.978;2024-01-30T12:50:36;13.40;99.90
39525;DHT22;25203;50.754;6.978;2024-01-30T12:52:37;13.40;99.90
39525;DHT22;25203;50.754;6.978;2024-01-30T12:54:38;13.40;99.90